Time;durP1;ratioP1;P1;durP2;ratioP2;P2;SDS_P1;SDS_P2;PMS_P1;PMS_P2;Temp;Humidity;BMP_temperature;BMP_pressure;BME280_temperature;BME280_humidity;BME280_pressure;Samples;Min_cycle;Max_cycle;Signal;HPM_P1;HPM_P2
2023/07/23 00:01:37;;;;;;;4.27;2.63;;;;;;;;;;5015711;28;20221;-73
2023/07/23 00:04:42;;;;;;;3.33;2.63;;;;;;;;;;5015617;28;20205;-73
2023/07/23 00:07:46;;;;;;;5.03;2.90;;;;;;;;;;5003262;28;20193;-71
2023/07/23 00:10:56;;;;;;;3.87;2.77;;;;;;;;;;4992194;28;20221;-73
2023/07/23 00:13:59;;;;;;;3.73;2.50;;;;;;;;;;5015685;28;20178;-73
2023/07/23 00:17:04;;;;;;;5.00;2.70;;;;;;;;;;5015216;28;20530;-73
2023/07/23 00:20:10;;;;;;;3.43;2.77;;;;;;;;;;5015887;28;20174;-73
2023/07/23 00:23:14;;;;;;;5.43;3.10;;;;;;;;;;5015285;28;20193;-72
2023/07/23 00:26:18;;;;;;;3.87;2.90;;;;;;;;;;5003172;28;20217;-73
2023/07/23 00:29:22;;;;;;;4.10;3.10;;;;;;;;;;5015147;28;20652;-73
2023/07/23 00:32:26;;;;;;;5.27;2.90;;;;;;;;;;5014488;28;20216;-72
2023/07/23 00:35:30;;;;;;;4.53;2.77;;;;;;;;;;5003055;28;20181;-73
2023/07/23 00:38:34;;;;;;;5.77;3.13;;;;;;;;;;5003062;28;20181;-73
2023/07/23 00:41:38;;;;;;;6.30;3.40;;;;;;;;;;5002631;28;20217;-72
2023/07/23 00:44:43;;;;;;;7.53;3.23;;;;;;;;;;5014495;28;20201;-73
2023/07/23 00:47:47;;;;;;;3.93;2.63;;;;;;;;;;5002832;28;20628;-72
2023/07/23 00:50:51;;;;;;;3.87;2.80;;;;;;;;;;5014667;28;20216;-73
2023/07/23 00:53:55;;;;;;;4.63;2.73;;;;;;;;;;5002728;28;20209;-73
2023/07/23 00:57:02;;;;;;;4.27;2.60;;;;;;;;;;5014959;28;20189;-73
2023/07/23 01:00:10;;;;;;;3.30;2.50;;;;;;;;;;5002592;28;20640;-72
2023/07/23 01:03:15;;;;;;;4.97;2.80;;;;;;;;;;5002569;28;20207;-73
2023/07/23 01:06:20;;;;;;;5.43;3.03;;;;;;;;;;5002390;28;20201;-73
2023/07/23 01:09:25;;;;;;;3.67;2.50;;;;;;;;;;5002132;28;20181;-72
2023/07/23 01:12:29;;;;;;;5.90;2.70;;;;;;;;;;4991693;28;20213;-73
2023/07/23 01:15:34;;;;;;;6.57;2.47;;;;;;;;;;4979758;28;20173;-72
2023/07/23 01:18:40;;;;;;;3.77;2.57;;;;;;;;;;5002027;28;20521;-73
2023/07/23 01:21:44;;;;;;;3.20;2.60;;;;;;;;;;4991292;28;20676;-73
2023/07/23 01:24:48;;;;;;;3.80;2.73;;;;;;;;;;4990525;28;20201;-72
2023/07/23 01:27:52;;;;;;;3.33;2.63;;;;;;;;;;5002154;28;20181;-73
2023/07/23 01:30:56;;;;;;;5.37;2.97;;;;;;;;;;5002258;28;20225;-73
2023/07/23 01:34:04;;;;;;;3.67;2.90;;;;;;;;;;5014124;28;20182;-73
2023/07/23 01:37:12;;;;;;;2.90;2.60;;;;;;;;;;5002190;28;20182;-73
2023/07/23 01:40:17;;;;;;;6.87;2.60;;;;;;;;;;4991005;28;20186;-73
2023/07/23 01:43:21;;;;;;;5.67;2.43;;;;;;;;;;4990708;28;20178;-73
2023/07/23 01:46:25;;;;;;;3.90;2.53;;;;;;;;;;5001657;28;20209;-73
2023/07/23 01:49:30;;;;;;;5.13;2.87;;;;;;;;;;4990575;28;20185;-73
2023/07/23 01:52:34;;;;;;;4.43;2.70;;;;;;;;;;5013676;28;20688;-72
2023/07/23 01:55:38;;;;;;;2.90;2.57;;;;;;;;;;5001577;28;20193;-73
2023/07/23 01:58:43;;;;;;;3.23;2.47;;;;;;;;;;5013483;28;20521;-72
2023/07/23 02:01:47;;;;;;;4.93;2.70;;;;;;;;;;5001573;28;20217;-73
2023/07/23 02:04:51;;;;;;;3.63;2.60;;;;;;;;;;5013377;28;20201;-73
2023/07/23 02:07:55;;;;;;;4.33;2.63;;;;;;;;;;4990043;28;20189;-73
2023/07/23 02:11:00;;;;;;;5.07;2.77;;;;;;;;;;5013452;28;20209;-72
2023/07/23 02:14:04;;;;;;;3.73;2.43;;;;;;;;;;5013561;28;20177;-72
2023/07/23 02:17:09;;;;;;;5.63;2.80;;;;;;;;;;5001529;28;20514;-73
2023/07/23 02:20:13;;;;;;;3.57;2.67;;;;;;;;;;5001747;28;20181;-73
2023/07/23 02:23:17;;;;;;;4.53;2.70;;;;;;;;;;4990381;28;20182;-72
2023/07/23 02:26:21;;;;;;;3.40;2.87;;;;;;;;;;5013389;28;20209;-73
2023/07/23 02:29:25;;;;;;;4.70;2.90;;;;;;;;;;5001255;28;20205;-72
2023/07/23 02:32:29;;;;;;;4.57;3.17;;;;;;;;;;5001220;28;20220;-72
2023/07/23 02:35:37;;;;;;;4.30;3.10;;;;;;;;;;5013370;28;20178;-73
2023/07/23 02:38:41;;;;;;;4.33;2.93;;;;;;;;;;5013368;28;20193;-73
2023/07/23 02:41:45;;;;;;;4.90;2.70;;;;;;;;;;5001092;28;20216;-73
2023/07/23 02:44:48;;;;;;;3.17;2.50;;;;;;;;;;5001277;28;20189;-72
2023/07/23 02:47:53;;;;;;;4.97;2.80;;;;;;;;;;5001479;28;20174;-73
2023/07/23 02:50:57;;;;;;;3.20;2.83;;;;;;;;;;5013077;28;20216;-72
2023/07/23 02:54:01;;;;;;;3.43;2.67;;;;;;;;;;5000772;28;20186;-73
2023/07/23 02:57:05;;;;;;;5.27;3.20;;;;;;;;;;4992543;28;20660;-73
2023/07/23 03:00:11;;;;;;;4.03;3.07;;;;;;;;;;5004616;28;20177;-73
2023/07/23 03:03:15;;;;;;;3.57;3.10;;;;;;;;;;4994115;28;20173;-73
2023/07/23 03:06:19;;;;;;;3.30;2.70;;;;;;;;;;5016920;28;20213;-73
2023/07/23 03:09:24;;;;;;;6.03;2.90;;;;;;;;;;4993529;28;20182;-73
2023/07/23 03:12:28;;;;;;;4.90;3.43;;;;;;;;;;5004579;28;20553;-72
2023/07/23 03:15:32;;;;;;;4.20;2.87;;;;;;;;;;5004289;28;20181;-72
2023/07/23 03:18:36;;;;;;;6.13;3.30;;;;;;;;;;5016281;28;20537;-73
2023/07/23 03:21:40;;;;;;;4.40;3.13;;;;;;;;;;5016130;28;20221;-73
2023/07/23 03:24:45;;;;;;;5.63;2.87;;;;;;;;;;5016520;28;20616;-73
2023/07/23 03:27:49;;;;;;;3.57;2.80;;;;;;;;;;5004262;28;20173;-73
2023/07/23 03:30:53;;;;;;;5.33;3.17;;;;;;;;;;5004719;28;20660;-73
2023/07/23 03:33:57;;;;;;;3.40;2.90;;;;;;;;;;5004516;28;20186;-73
2023/07/23 03:37:01;;;;;;;5.53;3.00;;;;;;;;;;5004118;28;20174;-73
2023/07/23 03:40:06;;;;;;;4.57;3.17;;;;;;;;;;4992723;28;20177;-73
2023/07/23 03:43:10;;;;;;;4.13;2.90;;;;;;;;;;5015868;28;20181;-73
2023/07/23 03:46:14;;;;;;;3.57;2.97;;;;;;;;;;5016267;28;20205;-73
2023/07/23 03:49:18;;;;;;;4.77;3.10;;;;;;;;;;5003953;28;20173;-73
2023/07/23 03:52:22;;;;;;;3.67;2.90;;;;;;;;;;5015651;28;20556;-73
2023/07/23 03:55:27;;;;;;;3.07;2.53;;;;;;;;;;5006986;22;20228;-71
2023/07/23 03:58:30;;;;;;;5.03;2.70;;;;;;;;;;4992784;28;20193;-70
2023/07/23 04:01:34;;;;;;;5.57;3.27;;;;;;;;;;5003789;28;20213;-71
2023/07/23 04:04:39;;;;;;;4.20;3.00;;;;;;;;;;5016025;28;20181;-71
2023/07/23 04:07:43;;;;;;;3.60;2.60;;;;;;;;;;5002878;28;20209;-71
2023/07/23 04:10:47;;;;;;;3.20;2.77;;;;;;;;;;5015268;28;20217;-71
2023/07/23 04:13:52;;;;;;;3.67;3.00;;;;;;;;;;5003281;28;20517;-70
2023/07/23 04:16:56;;;;;;;3.57;2.83;;;;;;;;;;5003330;28;20173;-70
2023/07/23 04:20:00;;;;;;;6.27;2.83;;;;;;;;;;5003326;28;20177;-70
2023/07/23 04:23:04;;;;;;;3.13;2.63;;;;;;;;;;5003292;28;20644;-70
2023/07/23 04:26:08;;;;;;;6.13;2.97;;;;;;;;;;5002829;28;20209;-71
2023/07/23 04:29:13;;;;;;;4.23;2.93;;;;;;;;;;5014909;28;20177;-70
2023/07/23 04:32:17;;;;;;;3.37;2.80;;;;;;;;;;5002748;28;20209;-71
2023/07/23 04:35:21;;;;;;;3.90;2.80;;;;;;;;;;4980455;28;20640;-70
2023/07/23 04:38:25;;;;;;;4.40;2.77;;;;;;;;;;5014791;28;20628;-70
2023/07/23 04:41:30;;;;;;;5.43;3.30;;;;;;;;;;5002682;28;20217;-71
2023/07/23 04:44:34;;;;;;;4.10;2.77;;;;;;;;;;5014660;28;20178;-70
2023/07/23 04:47:40;;;;;;;6.00;2.67;;;;;;;;;;5014475;28;20209;-70
2023/07/23 04:50:44;;;;;;;3.30;2.63;;;;;;;;;;5014536;28;20217;-70
2023/07/23 04:53:48;;;;;;;4.03;3.03;;;;;;;;;;5015088;28;20181;-71
2023/07/23 04:56:52;;;;;;;6.33;2.77;;;;;;;;;;5014381;28;20201;-71
2023/07/23 04:59:56;;;;;;;3.47;2.67;;;;;;;;;;4991293;28;20177;-71
2023/07/23 05:03:01;;;;;;;3.53;2.60;;;;;;;;;;5014387;28;20636;-71
2023/07/23 05:06:06;;;;;;;4.53;2.73;;;;;;;;;;5014237;28;20181;-71
2023/07/23 05:09:10;;;;;;;3.30;2.97;;;;;;;;;;5014474;28;20193;-71
2023/07/23 05:12:14;;;;;;;4.80;2.83;;;;;;;;;;5002056;28;20695;-71
2023/07/23 05:15:18;;;;;;;3.13;2.60;;;;;;;;;;5014514;28;20640;-71
2023/07/23 05:18:23;;;;;;;4.70;2.80;;;;;;;;;;5014306;28;20640;-71
2023/07/23 05:21:27;;;;;;;6.13;2.83;;;;;;;;;;5013801;28;20209;-71
2023/07/23 05:24:32;;;;;;;3.50;2.87;;;;;;;;;;5002182;28;20641;-70
2023/07/23 05:27:37;;;;;;;4.40;2.60;;;;;;;;;;5013919;28;20205;-71
2023/07/23 05:30:41;;;;;;;3.57;2.40;;;;;;;;;;5013715;28;20220;-71
2023/07/23 05:33:45;;;;;;;5.37;2.87;;;;;;;;;;5013768;28;20201;-70
2023/07/23 05:36:48;;;;;;;4.13;2.83;;;;;;;;;;5001717;28;20671;-71
2023/07/23 05:39:53;;;;;;;4.13;2.90;;;;;;;;;;5013704;28;20205;-71
2023/07/23 05:42:59;;;;;;;4.57;2.83;;;;;;;;;;4990761;28;20252;-71
2023/07/23 05:46:03;;;;;;;8.87;3.00;;;;;;;;;;5002411;28;20525;-71
2023/07/23 05:49:07;;;;;;;4.17;2.50;;;;;;;;;;5013603;28;20201;-71
2023/07/23 05:52:11;;;;;;;4.63;2.67;;;;;;;;;;5013797;28;20216;-71
2023/07/23 05:55:16;;;;;;;5.40;2.97;;;;;;;;;;5013480;28;20201;-71
2023/07/23 05:58:20;;;;;;;3.37;2.53;;;;;;;;;;5013790;28;20186;-71
2023/07/23 06:01:24;;;;;;;5.50;2.70;;;;;;;;;;5001499;28;20561;-72
2023/07/23 06:04:28;;;;;;;3.63;2.97;;;;;;;;;;5013756;28;20177;-71
2023/07/23 06:07:32;;;;;;;6.07;2.93;;;;;;;;;;5001567;28;20688;-71
2023/07/23 06:10:36;;;;;;;3.27;2.50;;;;;;;;;;5013588;28;20209;-71
2023/07/23 06:13:41;;;;;;;5.03;2.80;;;;;;;;;;5013633;28;20185;-70
2023/07/23 06:16:45;;;;;;;7.40;2.57;;;;;;;;;;5013301;28;20193;-71
2023/07/23 06:19:49;;;;;;;4.03;2.53;;;;;;;;;;5001466;28;20186;-71
2023/07/23 06:22:54;;;;;;;4.57;2.63;;;;;;;;;;5013224;28;20181;-71
2023/07/23 06:25:58;;;;;;;2.80;2.40;;;;;;;;;;5001091;28;20197;-71
2023/07/23 06:29:05;;;;;;;3.27;2.50;;;;;;;;;;5013524;28;20194;-71
2023/07/23 06:32:10;;;;;;;2.83;2.53;;;;;;;;;;5004300;28;20687;-71
2023/07/23 06:35:14;;;;;;;7.17;2.53;;;;;;;;;;5005163;28;20652;-71
2023/07/23 06:38:18;;;;;;;3.57;2.47;;;;;;;;;;5017275;28;20169;-70
2023/07/23 06:41:22;;;;;;;4.23;2.47;;;;;;;;;;5005057;28;20225;-71
2023/07/23 06:44:26;;;;;;;4.83;2.40;;;;;;;;;;4994114;28;20640;-71
2023/07/23 06:47:30;;;;;;;4.47;2.57;;;;;;;;;;5017164;28;20201;-71
2023/07/23 06:50:36;;;;;;;3.73;2.30;;;;;;;;;;5016789;28;20228;-71
2023/07/23 06:53:42;;;;;;;3.20;2.47;;;;;;;;;;5005299;28;20182;-71
2023/07/23 06:56:46;;;;;;;2.80;2.30;;;;;;;;;;5016591;28;20209;-71
2023/07/23 06:59:51;;;;;;;4.17;2.60;;;;;;;;;;5005129;28;20186;-72
2023/07/23 07:02:55;;;;;;;2.77;2.37;;;;;;;;;;5016872;28;20182;-71
2023/07/23 07:06:00;;;;;;;4.33;2.43;;;;;;;;;;5016932;28;20177;-71
2023/07/23 07:09:04;;;;;;;7.87;2.33;;;;;;;;;;5016842;28;20178;-72
2023/07/23 07:12:08;;;;;;;3.17;2.20;;;;;;;;;;5016972;28;20221;-71
2023/07/23 07:15:12;;;;;;;4.50;2.30;;;;;;;;;;5016627;28;20181;-71
2023/07/23 07:18:16;;;;;;;4.73;2.47;;;;;;;;;;5004575;28;20182;-71
2023/07/23 07:21:21;;;;;;;2.60;2.13;;;;;;;;;;5016382;28;20700;-71
2023/07/23 07:24:25;;;;;;;2.97;2.40;;;;;;;;;;5016064;28;20202;-72
2023/07/23 07:27:29;;;;;;;3.90;2.30;;;;;;;;;;5015954;28;20567;-71
2023/07/23 07:30:34;;;;;;;4.63;2.30;;;;;;;;;;5004123;28;20641;-71
2023/07/23 07:33:39;;;;;;;5.50;2.20;;;;;;;;;;5016422;28;20515;-71
2023/07/23 07:36:44;;;;;;;4.50;2.00;;;;;;;;;;5004194;28;20647;-71
2023/07/23 07:39:49;;;;;;;2.30;1.80;;;;;;;;;;5015821;28;20175;-72
2023/07/23 07:42:53;;;;;;;2.90;2.20;;;;;;;;;;5014990;28;20179;-73
2023/07/23 07:46:00;;;;;;;3.37;2.17;;;;;;;;;;5003641;28;20196;-72
2023/07/23 07:49:05;;;;;;;3.72;2.20;;;;;;;;;;5015563;28;20580;-72
2023/07/23 07:52:11;;;;;;;2.95;2.00;;;;;;;;;;5015948;28;20675;-72
2023/07/23 07:55:15;;;;;;;3.97;2.45;;;;;;;;;;5004044;28;20618;-73
2023/07/23 07:58:24;;;;;;;2.47;2.10;;;;;;;;;;5015651;28;20197;-73
2023/07/23 08:01:29;;;;;;;2.90;2.05;;;;;;;;;;5015888;28;20696;-73
2023/07/23 08:04:33;;;;;;;2.17;1.95;;;;;;;;;;5015351;28;20533;-73
2023/07/23 08:07:38;;;;;;;2.25;1.95;;;;;;;;;;5015496;28;20212;-73
2023/07/23 08:10:45;;;;;;;3.72;2.13;;;;;;;;;;5003299;28;20698;-72
2023/07/23 08:13:50;;;;;;;2.42;2.00;;;;;;;;;;5015687;28;20520;-73
2023/07/23 08:16:54;;;;;;;8.15;2.20;;;;;;;;;;5015382;28;20193;-72
2023/07/23 08:19:59;;;;;;;2.70;2.13;;;;;;;;;;5014960;28;20205;-73
2023/07/23 08:23:03;;;;;;;4.05;2.60;;;;;;;;;;5014957;28;20201;-73
2023/07/23 08:26:08;;;;;;;3.03;2.15;;;;;;;;;;5014932;28;20193;-72
2023/07/23 08:29:16;;;;;;;5.30;2.10;;;;;;;;;;5014771;28;20209;-72
2023/07/23 08:32:22;;;;;;;2.65;2.10;;;;;;;;;;5002770;28;20217;-72
2023/07/23 08:35:27;;;;;;;4.50;2.38;;;;;;;;;;5015529;28;20198;-72
2023/07/23 08:38:32;;;;;;;4.80;2.33;;;;;;;;;;5015264;28;20633;-72
2023/07/23 08:41:42;;;;;;;2.95;2.15;;;;;;;;;;5014985;28;20665;-72
2023/07/23 08:45:02;;;;;;;3.60;2.33;;;;;;;;;;5014653;28;20186;-72
2023/07/23 08:48:16;;;;;;;3.38;2.13;;;;;;;;;;5002707;28;20210;-72
2023/07/23 08:51:23;;;;;;;3.25;2.38;;;;;;;;;;5014473;28;20213;-72
2023/07/23 08:54:27;;;;;;;3.50;2.40;;;;;;;;;;5014863;28;20174;-72
2023/07/23 08:57:32;;;;;;;2.88;2.00;;;;;;;;;;5014618;28;20174;-72
2023/07/23 09:00:36;;;;;;;3.40;2.20;;;;;;;;;;5002183;28;20225;-72
2023/07/23 09:03:42;;;;;;;2.47;2.13;;;;;;;;;;5014561;28;20256;-72
2023/07/23 09:06:48;;;;;;;2.63;2.40;;;;;;;;;;5014478;28;20202;-72
2023/07/23 09:09:52;;;;;;;3.10;2.33;;;;;;;;;;5014382;28;20182;-72
2023/07/23 09:12:56;;;;;;;4.57;2.17;;;;;;;;;;5014906;28;20178;-73
2023/07/23 09:16:01;;;;;;;3.20;2.30;;;;;;;;;;5001898;28;20546;-72
2023/07/23 09:19:07;;;;;;;2.80;2.30;;;;;;;;;;5002380;28;20174;-72
2023/07/23 09:22:11;;;;;;;2.70;2.25;;;;;;;;;;5014175;28;20222;-72
2023/07/23 09:25:15;;;;;;;2.72;2.20;;;;;;;;;;5002042;28;20178;-73
2023/07/23 09:28:23;;;;;;;2.40;1.95;;;;;;;;;;5013991;28;20661;-72
2023/07/23 09:31:31;;;;;;;2.50;2.28;;;;;;;;;;5001548;28;20209;-73
2023/07/23 09:34:36;;;;;;;2.83;2.40;;;;;;;;;;5014569;28;20178;-73
2023/07/23 09:37:41;;;;;;;3.15;2.35;;;;;;;;;;5013785;28;20170;-72
2023/07/23 09:40:48;;;;;;;6.07;2.28;;;;;;;;;;5001937;28;20691;-72
2023/07/23 09:43:52;;;;;;;4.75;2.10;;;;;;;;;;5001445;28;20527;-72
2023/07/23 09:46:58;;;;;;;2.60;2.40;;;;;;;;;;5001512;28;20182;-72
2023/07/23 09:50:02;;;;;;;3.38;2.20;;;;;;;;;;5014096;28;20198;-72
2023/07/23 09:53:12;;;;;;;3.10;2.25;;;;;;;;;;5013820;28;20181;-72
2023/07/23 09:56:18;;;;;;;3.28;2.50;;;;;;;;;;5028230;22;20225;-70
2023/07/23 09:59:22;;;;;;;3.38;2.50;;;;;;;;;;5013411;28;20190;-70
2023/07/23 10:02:29;;;;;;;3.65;2.22;;;;;;;;;;5013248;28;20222;-70
2023/07/23 10:05:33;;;;;;;3.53;2.88;;;;;;;;;;5012781;28;20533;-70
2023/07/23 10:08:43;;;;;;;2.53;2.28;;;;;;;;;;5014010;28;20205;-70
2023/07/23 10:11:46;;;;;;;2.97;2.45;;;;;;;;;;5013415;28;20217;-70
2023/07/23 10:14:51;;;;;;;4.05;2.70;;;;;;;;;;4990093;28;20198;-70
2023/07/23 10:18:01;;;;;;;4.38;2.70;;;;;;;;;;5013763;28;20190;-71
2023/07/23 10:21:10;;;;;;;4.82;2.35;;;;;;;;;;5001170;28;20213;-71
2023/07/23 10:24:14;;;;;;;3.20;2.70;;;;;;;;;;5013336;28;20174;-72
2023/07/23 10:27:19;;;;;;;3.97;2.60;;;;;;;;;;5001384;28;20515;-72
2023/07/23 10:30:24;;;;;;;3.85;2.70;;;;;;;;;;5013211;28;20182;-71
2023/07/23 10:33:29;;;;;;;3.40;2.60;;;;;;;;;;5013312;28;20691;-71
2023/07/23 10:37:15;;;;;;;4.47;3.05;;;;;;;;;;5013540;28;20621;-71
2023/07/23 10:40:45;;;;;;;3.20;2.85;;;;;;;;;;5012945;28;20201;-71
2023/07/23 10:43:50;;;;;;;4.35;3.03;;;;;;;;;;5013698;28;20189;-72
2023/07/23 10:46:59;;;;;;;3.65;2.78;;;;;;;;;;5013259;28;20518;-72
2023/07/23 10:50:10;;;;;;;3.55;2.80;;;;;;;;;;5013204;28;20190;-72
2023/07/23 10:53:15;;;;;;;3.78;3.08;;;;;;;;;;5013525;28;20221;-72
2023/07/23 10:56:33;;;;;;;4.90;3.38;;;;;;;;;;5013097;28;20198;-72
2023/07/23 10:59:38;;;;;;;4.68;3.42;;;;;;;;;;5012878;28;20182;-72
2023/07/23 11:02:47;;;;;;;4.88;3.72;;;;;;;;;;5013090;28;20182;-72
2023/07/23 11:05:52;;;;;;;7.05;3.50;;;;;;;;;;5012966;28;20194;-71
2023/07/23 11:09:01;;;;;;;8.77;4.40;;;;;;;;;;5012693;28;20226;-71
2023/07/23 11:12:06;;;;;;;6.60;4.78;;;;;;;;;;5012889;28;20719;-71
2023/07/23 11:15:15;;;;;;;7.00;5.32;;;;;;;;;;5000893;28;20178;-71
2023/07/23 11:18:19;;;;;;;7.85;5.30;;;;;;;;;;5015730;28;20182;-71
2023/07/23 11:21:27;;;;;;;10.90;5.68;;;;;;;;;;5016123;28;20696;-71
2023/07/23 11:24:31;;;;;;;9.48;6.68;;;;;;;;;;5016081;28;20197;-71
2023/07/23 11:27:35;;;;;;;7.32;5.90;;;;;;;;;;5016388;28;20197;-72
2023/07/23 11:30:40;;;;;;;8.23;6.35;;;;;;;;;;5016923;28;20214;-71
2023/07/23 11:33:44;;;;;;;6.05;4.82;;;;;;;;;;5016966;28;20174;-72
2023/07/23 11:36:55;;;;;;;7.57;6.13;;;;;;;;;;5016454;28;20205;-72
2023/07/23 11:40:01;;;;;;;12.25;8.27;;;;;;;;;;5015792;28;20189;-72
2023/07/23 11:43:06;;;;;;;11.73;8.77;;;;;;;;;;5016580;28;20625;-73
2023/07/23 11:46:18;;;;;;;12.77;8.55;;;;;;;;;;5016575;28;20178;-73
2023/07/23 11:49:22;;;;;;;13.23;9.13;;;;;;;;;;5016020;28;20214;-75
2023/07/23 11:52:26;;;;;;;9.43;7.57;;;;;;;;;;5016218;28;20213;-72
2023/07/23 11:55:32;;;;;;;11.07;7.30;;;;;;;;;;5015879;28;20182;-72
2023/07/23 11:58:37;;;;;;;12.32;8.27;;;;;;;;;;5016370;28;20174;-72
2023/07/23 12:01:41;;;;;;;14.27;9.23;;;;;;;;;;5015746;28;20213;-72
2023/07/23 12:04:46;;;;;;;12.52;8.95;;;;;;;;;;5015788;28;20181;-72
2023/07/23 12:07:52;;;;;;;12.02;8.30;;;;;;;;;;5016007;28;20181;-72
2023/07/23 12:10:57;;;;;;;14.95;9.88;;;;;;;;;;5015624;28;20206;-72
2023/07/23 12:14:08;;;;;;;15.93;10.15;;;;;;;;;;5015295;28;20182;-71
2023/07/23 12:17:12;;;;;;;11.90;9.15;;;;;;;;;;5003562;28;20185;-72
2023/07/23 12:20:17;;;;;;;11.40;8.55;;;;;;;;;;5003094;28;20170;-72
2023/07/23 12:23:21;;;;;;;11.10;8.05;;;;;;;;;;5003059;28;20181;-71
2023/07/23 12:26:25;;;;;;;9.77;8.50;;;;;;;;;;5015046;28;20182;-72
2023/07/23 12:29:29;;;;;;;11.45;8.13;;;;;;;;;;5014379;28;20217;-72
2023/07/23 12:32:36;;;;;;;11.85;8.75;;;;;;;;;;5015141;28;20557;-72
2023/07/23 12:35:40;;;;;;;15.38;8.63;;;;;;;;;;5003431;28;20182;-72
2023/07/23 12:38:45;;;;;;;11.80;8.27;;;;;;;;;;5014866;28;20178;-72
2023/07/23 12:41:48;;;;;;;11.65;9.00;;;;;;;;;;5002654;28;20229;-72
2023/07/23 12:44:52;;;;;;;13.70;9.40;;;;;;;;;;5014997;28;20514;-72
2023/07/23 12:47:57;;;;;;;15.73;9.95;;;;;;;;;;5014701;28;20174;-72
2023/07/23 12:51:01;;;;;;;12.23;9.48;;;;;;;;;;5002894;28;20209;-72
2023/07/23 12:54:05;;;;;;;12.00;8.98;;;;;;;;;;5015125;28;20182;-72
2023/07/23 12:57:09;;;;;;;15.45;9.57;;;;;;;;;;5002541;28;20210;-72
2023/07/23 13:00:14;;;;;;;12.45;9.55;;;;;;;;;;5002426;28;20230;-72
2023/07/23 13:03:17;;;;;;;15.85;9.63;;;;;;;;;;5003097;28;20624;-72
2023/07/23 13:06:22;;;;;;;14.50;10.07;;;;;;;;;;5014860;28;20640;-72
2023/07/23 13:09:26;;;;;;;13.95;10.52;;;;;;;;;;5014521;28;20220;-72
2023/07/23 13:12:29;;;;;;;18.73;10.30;;;;;;;;;;5014426;28;20739;-71
2023/07/23 13:15:34;;;;;;;14.30;10.05;;;;;;;;;;5014404;28;20204;-72
2023/07/23 13:18:38;;;;;;;15.90;10.48;;;;;;;;;;5014056;28;20200;-72
2023/07/23 13:21:43;;;;;;;13.27;9.45;;;;;;;;;;5013157;28;20236;-71
2023/07/23 13:24:47;;;;;;;50.65;11.98;;;;;;;;;;5013685;28;20637;-71
2023/07/23 13:27:51;;;;;;;13.10;9.82;;;;;;;;;;5013715;28;20677;-71
2023/07/23 13:30:55;;;;;;;12.60;9.20;;;;;;;;;;4991047;28;20209;-72
2023/07/23 13:33:59;;;;;;;14.25;10.10;;;;;;;;;;5013738;28;20520;-72
2023/07/23 13:37:04;;;;;;;14.48;10.13;;;;;;;;;;5014082;28;20189;-71
2023/07/23 13:40:09;;;;;;;17.42;10.95;;;;;;;;;;4990562;28;20178;-71
2023/07/23 13:43:13;;;;;;;16.05;10.00;;;;;;;;;;5013810;28;20189;-71
2023/07/23 13:46:17;;;;;;;14.23;9.90;;;;;;;;;;5001335;28;20180;-70
2023/07/23 13:49:40;;;;;;;15.60;10.25;;;;;;;;;;5013775;28;20202;-71
2023/07/23 13:53:04;;;;;;;14.23;10.23;;;;;;;;;;5013896;28;20193;-72
2023/07/23 13:56:08;;;;;;;13.48;10.32;;;;;;;;;;4990336;28;20691;-71
2023/07/23 13:59:13;;;;;;;14.57;10.63;;;;;;;;;;5013530;28;20647;-72
2023/07/23 14:02:19;;;;;;;14.25;10.38;;;;;;;;;;5001615;28;20576;-71
2023/07/23 14:05:28;;;;;;;13.02;9.73;;;;;;;;;;5013692;28;20555;-72
2023/07/23 14:08:33;;;;;;;14.98;10.43;;;;;;;;;;5013340;28;20178;-72
2023/07/23 14:11:38;;;;;;;14.77;9.57;;;;;;;;;;5013316;28;20212;-71
2023/07/23 14:14:42;;;;;;;14.65;9.32;;;;;;;;;;5001416;28;20174;-71
2023/07/23 14:17:47;;;;;;;14.43;9.75;;;;;;;;;;5001822;28;20641;-72
2023/07/23 14:20:51;;;;;;;17.75;10.00;;;;;;;;;;5012435;28;20220;-71
2023/07/23 14:23:55;;;;;;;13.65;10.00;;;;;;;;;;5012929;28;20544;-71
2023/07/23 14:26:59;;;;;;;18.15;11.32;;;;;;;;;;5012889;28;20212;-71
2023/07/23 14:30:04;;;;;;;14.68;10.73;;;;;;;;;;5012845;28;20721;-71
2023/07/23 14:33:08;;;;;;;23.23;10.65;;;;;;;;;;5002134;28;20533;-72
2023/07/23 14:36:12;;;;;;;24.92;11.40;;;;;;;;;;4990042;28;20555;-72
2023/07/23 14:39:16;;;;;;;15.00;10.65;;;;;;;;;;4990487;28;20172;-72
2023/07/23 14:42:20;;;;;;;13.95;10.02;;;;;;;;;;5001405;28;20224;-72
2023/07/23 14:45:24;;;;;;;17.02;10.65;;;;;;;;;;5013347;28;20196;-72
2023/07/23 14:48:28;;;;;;;14.18;9.55;;;;;;;;;;5013360;28;20543;-71
2023/07/23 14:51:32;;;;;;;15.27;9.55;;;;;;;;;;5001807;28;20208;-72
2023/07/23 14:54:38;;;;;;;22.27;10.23;;;;;;;;;;5016885;28;20188;-72
2023/07/23 14:57:42;;;;;;;23.88;9.75;;;;;;;;;;5016712;28;20217;-71
2023/07/23 15:00:46;;;;;;;14.52;8.98;;;;;;;;;;5004688;28;20214;-71
2023/07/23 15:03:50;;;;;;;14.52;9.02;;;;;;;;;;5017254;28;20177;-72
2023/07/23 15:06:55;;;;;;;14.60;9.65;;;;;;;;;;5016591;28;20178;-72
2023/07/23 15:09:59;;;;;;;18.10;9.50;;;;;;;;;;5004721;28;20206;-72
2023/07/23 15:13:03;;;;;;;14.13;9.65;;;;;;;;;;5016618;28;20179;-72
2023/07/23 15:16:08;;;;;;;12.70;9.05;;;;;;;;;;5004454;28;20180;-72
2023/07/23 15:19:12;;;;;;;13.23;8.15;;;;;;;;;;5004699;28;20181;-72
2023/07/23 15:22:17;;;;;;;11.98;8.07;;;;;;;;;;5015851;28;20220;-71
2023/07/23 15:25:22;;;;;;;15.27;7.68;;;;;;;;;;5015670;28;20181;-71
2023/07/23 15:28:27;;;;;;;12.00;8.75;;;;;;;;;;5015507;28;20196;-71
2023/07/23 15:31:34;;;;;;;11.50;7.43;;;;;;;;;;5004469;28;20215;-72
2023/07/23 15:34:40;;;;;;;9.95;7.47;;;;;;;;;;5016182;28;20179;-72
2023/07/23 15:37:44;;;;;;;10.02;6.93;;;;;;;;;;5003989;28;20183;-71
2023/07/23 15:40:49;;;;;;;10.77;6.93;;;;;;;;;;5015877;28;20215;-71
2023/07/23 15:43:53;;;;;;;11.52;7.22;;;;;;;;;;5015882;28;20183;-71
2023/07/23 15:46:59;;;;;;;11.18;7.60;;;;;;;;;;5003827;28;20196;-72
2023/07/23 15:50:03;;;;;;;12.38;7.13;;;;;;;;;;5003833;28;20228;-72
2023/07/23 15:53:07;;;;;;;8.80;6.80;;;;;;;;;;5016063;28;20635;-72
2023/07/23 15:56:11;;;;;;;12.07;7.57;;;;;;;;;;5018434;22;20227;-72
2023/07/23 15:59:15;;;;;;;11.88;7.68;;;;;;;;;;5015865;28;20178;-73
2023/07/23 16:02:19;;;;;;;11.10;7.82;;;;;;;;;;5015586;28;20218;-74
2023/07/23 16:05:24;;;;;;;13.68;7.20;;;;;;;;;;5015180;28;20189;-73
2023/07/23 16:08:28;;;;;;;12.90;8.00;;;;;;;;;;5015684;28;20199;-73
2023/07/23 16:11:32;;;;;;;18.88;7.88;;;;;;;;;;5015919;28;20230;-74
2023/07/23 16:14:37;;;;;;;12.85;7.53;;;;;;;;;;5015392;28;20641;-73
2023/07/23 16:17:40;;;;;;;12.00;7.45;;;;;;;;;;5003319;28;20514;-72
2023/07/23 16:20:46;;;;;;;13.07;8.20;;;;;;;;;;5015051;28;20218;-72
2023/07/23 16:23:50;;;;;;;10.80;7.70;;;;;;;;;;5015307;28;20204;-73
2023/07/23 16:26:54;;;;;;;10.73;7.60;;;;;;;;;;5015269;28;20641;-73
2023/07/23 16:29:58;;;;;;;10.45;7.57;;;;;;;;;;5014882;28;20206;-73
2023/07/23 16:33:03;;;;;;;13.48;6.78;;;;;;;;;;5015219;28;20202;-73
2023/07/23 16:36:12;;;;;;;14.00;7.60;;;;;;;;;;5014861;28;20179;-73
2023/07/23 16:39:17;;;;;;;15.48;7.90;;;;;;;;;;5003051;28;20182;-73
2023/07/23 16:42:25;;;;;;;12.30;7.68;;;;;;;;;;5015285;28;20214;-74
2023/07/23 16:45:29;;;;;;;10.65;7.15;;;;;;;;;;5014719;28;20529;-73
2023/07/23 16:48:33;;;;;;;11.15;7.03;;;;;;;;;;5014963;28;20182;-73
2023/07/23 16:51:37;;;;;;;11.48;7.47;;;;;;;;;;5014798;28;20700;-73
2023/07/23 16:54:43;;;;;;;10.07;6.78;;;;;;;;;;5015032;28;20191;-74
2023/07/23 16:57:48;;;;;;;10.90;7.35;;;;;;;;;;5014690;28;20205;-73
2023/07/23 17:00:52;;;;;;;9.80;7.45;;;;;;;;;;5014708;28;20216;-73
2023/07/23 17:03:56;;;;;;;10.73;7.05;;;;;;;;;;5014750;28;20185;-74
2023/07/23 17:07:01;;;;;;;8.85;6.57;;;;;;;;;;5002657;28;20177;-74
2023/07/23 17:10:05;;;;;;;7.70;5.85;;;;;;;;;;5014274;28;20207;-73
2023/07/23 17:13:12;;;;;;;12.35;6.78;;;;;;;;;;5014556;28;20182;-73
2023/07/23 17:16:17;;;;;;;11.63;6.78;;;;;;;;;;5014111;28;20206;-73
2023/07/23 17:19:21;;;;;;;8.73;6.63;;;;;;;;;;5014443;28;20197;-73
2023/07/23 17:22:25;;;;;;;8.38;6.63;;;;;;;;;;5014006;28;20210;-73
2023/07/23 17:25:29;;;;;;;9.95;6.95;;;;;;;;;;4991315;28;20204;-73
2023/07/23 17:28:33;;;;;;;11.00;6.80;;;;;;;;;;5014045;28;20666;-73
2023/07/23 17:31:37;;;;;;;12.20;7.03;;;;;;;;;;5001635;28;20227;-73
2023/07/23 17:34:42;;;;;;;11.88;6.97;;;;;;;;;;5002103;28;20175;-73
2023/07/23 17:37:47;;;;;;;10.20;6.85;;;;;;;;;;5014060;28;20537;-73
2023/07/23 17:40:51;;;;;;;8.32;6.32;;;;;;;;;;5001716;28;20213;-73
2023/07/23 17:43:56;;;;;;;8.02;6.15;;;;;;;;;;5013994;28;20535;-73
2023/07/23 17:47:03;;;;;;;8.00;6.00;;;;;;;;;;5014077;28;20184;-73
2023/07/23 17:50:15;;;;;;;8.97;6.33;;;;;;;;;;5014545;28;20545;-73
2023/07/23 17:53:19;;;;;;;9.73;6.32;;;;;;;;;;5013893;28;20650;-73
2023/07/23 17:56:23;;;;;;;9.73;6.32;;;;;;;;;;5013636;28;20211;-73
2023/07/23 17:59:27;;;;;;;11.07;6.70;;;;;;;;;;5013754;28;20212;-73
2023/07/23 18:02:31;;;;;;;8.53;6.40;;;;;;;;;;5013717;28;20215;-73
2023/07/23 18:05:35;;;;;;;12.10;6.60;;;;;;;;;;4979208;28;20185;-73
2023/07/23 18:08:40;;;;;;;9.03;5.97;;;;;;;;;;5013753;28;20184;-73
2023/07/23 18:11:44;;;;;;;15.03;6.93;;;;;;;;;;5013783;28;20225;-73
2023/07/23 18:14:48;;;;;;;14.97;6.23;;;;;;;;;;5001283;28;20180;-73
2023/07/23 18:17:52;;;;;;;9.03;6.43;;;;;;;;;;5013371;28;20181;-73
2023/07/23 18:20:57;;;;;;;9.03;6.33;;;;;;;;;;5013497;28;20211;-73
2023/07/23 18:24:01;;;;;;;9.77;6.23;;;;;;;;;;5013438;28;20181;-73